sensor_id;sensor_type;location;lat;lon;timestamp;P1;durP1;ratioP1;P2;durP2;ratioP2
20365;SDS011;10341;49.894;8.822;2023-05-10T00:00:51;0.60;;;0.60;;
20365;SDS011;10341;49.894;8.822;2023-05-10T00:06:10;0.52;;;0.52;;
20365;SDS011;10341;49.894;8.822;2023-05-10T00:11:30;1.75;;;0.60;;
20365;SDS011;10341;49.894;8.822;2023-05-10T00:16:50;1.10;;;0.70;;
20365;SDS011;10341;49.894;8.822;2023-05-10T00:22:09;0.45;;;0.40;;
20365;SDS011;10341;49.894;8.822;2023-05-10T00:27:29;1.13;;;0.60;;
20365;SDS011;10341;49.894;8.822;2023-05-10T00:32:48;0.40;;;0.40;;
20365;SDS011;10341;49.894;8.822;2023-05-10T00:38:08;0.60;;;0.60;;
20365;SDS011;10341;49.894;8.822;2023-05-10T00:43:27;0.45;;;0.45;;
20365;SDS011;10341;49.894;8.822;2023-05-10T00:48:47;0.75;;;0.75;;
20365;SDS011;10341;49.894;8.822;2023-05-10T00:59:26;0.60;;;0.60;;
20365;SDS011;10341;49.894;8.822;2023-05-10T01:04:47;0.50;;;0.50;;
20365;SDS011;10341;49.894;8.822;2023-05-10T01:10:08;1.00;;;0.63;;
20365;SDS011;10341;49.894;8.822;2023-05-10T01:15:28;1.83;;;0.70;;
20365;SDS011;10341;49.894;8.822;2023-05-10T01:20:51;1.92;;;0.88;;
20365;SDS011;10341;49.894;8.822;2023-05-10T01:37:39;1.00;;;0.90;;
20365;SDS011;10341;49.894;8.822;2023-05-10T01:43:04;2.38;;;1.15;;
20365;SDS011;10341;49.894;8.822;2023-05-10T01:48:34;1.42;;;1.33;;
20365;SDS011;10341;49.894;8.822;2023-05-10T01:53:56;2.08;;;1.55;;
20365;SDS011;10341;49.894;8.822;2023-05-10T01:59:20;3.10;;;1.92;;
20365;SDS011;10341;49.894;8.822;2023-05-10T02:04:41;2.72;;;2.30;;
20365;SDS011;10341;49.894;8.822;2023-05-10T02:10:02;3.47;;;2.78;;
20365;SDS011;10341;49.894;8.822;2023-05-10T02:15:24;3.53;;;2.67;;
20365;SDS011;10341;49.894;8.822;2023-05-10T02:20:45;4.03;;;2.65;;
20365;SDS011;10341;49.894;8.822;2023-05-10T02:26:05;3.10;;;2.55;;
20365;SDS011;10341;49.894;8.822;2023-05-10T02:31:26;3.50;;;2.35;;
20365;SDS011;10341;49.894;8.822;2023-05-10T02:36:46;3.75;;;2.28;;
20365;SDS011;10341;49.894;8.822;2023-05-10T02:47:25;3.83;;;2.30;;
20365;SDS011;10341;49.894;8.822;2023-05-10T02:52:49;2.05;;;1.85;;
20365;SDS011;10341;49.894;8.822;2023-05-10T02:58:13;3.38;;;2.25;;
20365;SDS011;10341;49.894;8.822;2023-05-10T03:03:33;2.78;;;2.05;;
20365;SDS011;10341;49.894;8.822;2023-05-10T03:08:52;2.42;;;2.10;;
20365;SDS011;10341;49.894;8.822;2023-05-10T03:19:54;4.40;;;2.17;;
20365;SDS011;10341;49.894;8.822;2023-05-10T03:25:22;3.55;;;2.17;;
20365;SDS011;10341;49.894;8.822;2023-05-10T03:30:44;3.40;;;2.20;;
20365;SDS011;10341;49.894;8.822;2023-05-10T03:36:06;2.25;;;2.05;;
20365;SDS011;10341;49.894;8.822;2023-05-10T03:41:25;2.22;;;1.95;;
20365;SDS011;10341;49.894;8.822;2023-05-10T03:46:46;2.30;;;2.10;;
20365;SDS011;10341;49.894;8.822;2023-05-10T03:52:06;3.42;;;2.20;;
20365;SDS011;10341;49.894;8.822;2023-05-10T03:57:25;2.07;;;1.87;;
20365;SDS011;10341;49.894;8.822;2023-05-10T04:02:44;3.55;;;2.15;;
20365;SDS011;10341;49.894;8.822;2023-05-10T04:08:09;2.35;;;2.08;;
20365;SDS011;10341;49.894;8.822;2023-05-10T04:13:29;4.28;;;2.30;;
20365;SDS011;10341;49.894;8.822;2023-05-10T04:18:48;4.70;;;2.60;;
20365;SDS011;10341;49.894;8.822;2023-05-10T04:24:08;2.95;;;2.13;;
20365;SDS011;10341;49.894;8.822;2023-05-10T04:29:27;3.15;;;2.50;;
20365;SDS011;10341;49.894;8.822;2023-05-10T04:34:47;6.65;;;2.92;;
20365;SDS011;10341;49.894;8.822;2023-05-10T04:40:07;3.00;;;2.60;;
20365;SDS011;10341;49.894;8.822;2023-05-10T04:45:27;2.80;;;2.35;;
20365;SDS011;10341;49.894;8.822;2023-05-10T04:50:46;4.05;;;2.83;;
20365;SDS011;10341;49.894;8.822;2023-05-10T04:56:06;3.47;;;3.15;;
20365;SDS011;10341;49.894;8.822;2023-05-10T05:01:26;4.15;;;3.00;;
20365;SDS011;10341;49.894;8.822;2023-05-10T05:06:45;8.80;;;3.22;;
20365;SDS011;10341;49.894;8.822;2023-05-10T05:12:05;3.97;;;2.47;;
20365;SDS011;10341;49.894;8.822;2023-05-10T05:17:25;3.03;;;2.50;;
20365;SDS011;10341;49.894;8.822;2023-05-10T05:22:44;3.35;;;2.75;;
20365;SDS011;10341;49.894;8.822;2023-05-10T05:28:04;3.30;;;2.80;;
20365;SDS011;10341;49.894;8.822;2023-05-10T05:33:23;3.58;;;2.90;;
20365;SDS011;10341;49.894;8.822;2023-05-10T05:38:43;4.82;;;2.50;;
20365;SDS011;10341;49.894;8.822;2023-05-10T05:44:03;2.80;;;2.20;;
20365;SDS011;10341;49.894;8.822;2023-05-10T05:49:22;7.32;;;2.33;;
20365;SDS011;10341;49.894;8.822;2023-05-10T05:54:42;4.30;;;2.53;;
20365;SDS011;10341;49.894;8.822;2023-05-10T06:00:01;4.88;;;2.53;;
20365;SDS011;10341;49.894;8.822;2023-05-10T06:05:31;4.40;;;2.15;;
20365;SDS011;10341;49.894;8.822;2023-05-10T06:10:51;4.77;;;3.10;;
20365;SDS011;10341;49.894;8.822;2023-05-10T06:16:09;3.55;;;2.42;;
20365;SDS011;10341;49.894;8.822;2023-05-10T06:21:29;4.63;;;2.08;;
20365;SDS011;10341;49.894;8.822;2023-05-10T06:26:49;3.45;;;2.03;;
20365;SDS011;10341;49.894;8.822;2023-05-10T06:32:09;3.38;;;1.90;;
20365;SDS011;10341;49.894;8.822;2023-05-10T06:37:28;6.18;;;1.90;;
20365;SDS011;10341;49.894;8.822;2023-05-10T06:42:48;3.23;;;2.27;;
20365;SDS011;10341;49.894;8.822;2023-05-10T06:53:27;8.38;;;2.40;;
20365;SDS011;10341;49.894;8.822;2023-05-10T06:58:47;4.03;;;1.92;;
20365;SDS011;10341;49.894;8.822;2023-05-10T07:09:26;4.28;;;2.15;;
20365;SDS011;10341;49.894;8.822;2023-05-10T07:14:46;3.53;;;2.70;;
20365;SDS011;10341;49.894;8.822;2023-05-10T07:20:06;5.50;;;2.80;;
20365;SDS011;10341;49.894;8.822;2023-05-10T07:25:26;3.38;;;2.33;;
20365;SDS011;10341;49.894;8.822;2023-05-10T07:30:45;2.78;;;2.58;;
20365;SDS011;10341;49.894;8.822;2023-05-10T07:36:05;3.55;;;2.47;;
20365;SDS011;10341;49.894;8.822;2023-05-10T07:41:25;2.60;;;2.40;;
20365;SDS011;10341;49.894;8.822;2023-05-10T07:46:44;3.45;;;1.98;;
20365;SDS011;10341;49.894;8.822;2023-05-10T07:52:04;3.53;;;2.15;;
20365;SDS011;10341;49.894;8.822;2023-05-10T07:57:23;2.55;;;1.90;;
20365;SDS011;10341;49.894;8.822;2023-05-10T08:02:43;3.45;;;2.00;;
20365;SDS011;10341;49.894;8.822;2023-05-10T08:08:02;3.47;;;2.20;;
20365;SDS011;10341;49.894;8.822;2023-05-10T08:13:21;4.03;;;1.83;;
20365;SDS011;10341;49.894;8.822;2023-05-10T08:18:41;2.90;;;1.70;;
20365;SDS011;10341;49.894;8.822;2023-05-10T08:24:00;2.83;;;1.65;;
20365;SDS011;10341;49.894;8.822;2023-05-10T08:29:20;3.10;;;1.80;;
20365;SDS011;10341;49.894;8.822;2023-05-10T08:34:39;3.60;;;1.42;;
20365;SDS011;10341;49.894;8.822;2023-05-10T08:40:00;2.90;;;1.40;;
20365;SDS011;10341;49.894;8.822;2023-05-10T08:45:20;1.50;;;1.40;;
20365;SDS011;10341;49.894;8.822;2023-05-10T08:50:44;1.63;;;1.42;;
20365;SDS011;10341;49.894;8.822;2023-05-10T08:56:05;1.42;;;1.30;;
20365;SDS011;10341;49.894;8.822;2023-05-10T09:06:45;2.17;;;1.73;;
20365;SDS011;10341;49.894;8.822;2023-05-10T09:12:05;3.08;;;2.00;;
20365;SDS011;10341;49.894;8.822;2023-05-10T09:17:25;2.10;;;1.77;;
20365;SDS011;10341;49.894;8.822;2023-05-10T09:22:46;2.00;;;1.80;;
20365;SDS011;10341;49.894;8.822;2023-05-10T09:28:06;3.33;;;2.00;;
20365;SDS011;10341;49.894;8.822;2023-05-10T09:33:27;2.50;;;2.00;;
20365;SDS011;10341;49.894;8.822;2023-05-10T09:38:47;3.80;;;2.37;;
20365;SDS011;10341;49.894;8.822;2023-05-10T09:44:07;2.10;;;1.90;;
20365;SDS011;10341;49.894;8.822;2023-05-10T09:49:27;2.72;;;2.45;;
20365;SDS011;10341;49.894;8.822;2023-05-10T09:54:53;3.10;;;1.65;;
20365;SDS011;10341;49.894;8.822;2023-05-10T10:00:17;2.72;;;1.88;;
20365;SDS011;10341;49.894;8.822;2023-05-10T10:05:38;1.63;;;1.52;;
20365;SDS011;10341;49.894;8.822;2023-05-10T10:11:00;2.20;;;1.90;;
20365;SDS011;10341;49.894;8.822;2023-05-10T10:16:20;1.98;;;1.25;;
20365;SDS011;10341;49.894;8.822;2023-05-10T10:21:39;1.75;;;1.20;;
20365;SDS011;10341;49.894;8.822;2023-05-10T10:27:19;2.10;;;1.23;;
20365;SDS011;10341;49.894;8.822;2023-05-10T10:55:25;3.70;;;1.70;;
20365;SDS011;10341;49.894;8.822;2023-05-10T11:00:48;3.10;;;1.80;;
20365;SDS011;10341;49.894;8.822;2023-05-10T11:06:07;2.13;;;1.30;;
20365;SDS011;10341;49.894;8.822;2023-05-10T11:11:27;2.55;;;1.45;;
20365;SDS011;10341;49.894;8.822;2023-05-10T11:16:47;3.55;;;1.30;;
20365;SDS011;10341;49.894;8.822;2023-05-10T11:22:13;1.17;;;0.95;;
20365;SDS011;10341;49.894;8.822;2023-05-10T11:27:35;1.20;;;1.10;;
20365;SDS011;10341;49.894;8.822;2023-05-10T11:32:56;5.20;;;0.90;;
20365;SDS011;10341;49.894;8.822;2023-05-10T11:38:15;4.00;;;0.95;;
20365;SDS011;10341;49.894;8.822;2023-05-10T11:43:34;1.80;;;1.10;;
20365;SDS011;10341;49.894;8.822;2023-05-10T11:49:02;2.47;;;0.88;;
20365;SDS011;10341;49.894;8.822;2023-05-10T11:54:23;1.92;;;1.00;;
20365;SDS011;10341;49.894;8.822;2023-05-10T11:59:42;1.20;;;0.80;;
20365;SDS011;10341;49.894;8.822;2023-05-10T12:05:00;0.77;;;0.77;;
20365;SDS011;10341;49.894;8.822;2023-05-10T12:10:25;0.80;;;0.80;;
20365;SDS011;10341;49.894;8.822;2023-05-10T12:15:45;0.88;;;0.73;;
20365;SDS011;10341;49.894;8.822;2023-05-10T12:21:04;0.52;;;0.40;;
20365;SDS011;10341;49.894;8.822;2023-05-10T12:37:17;0.50;;;0.50;;
20365;SDS011;10341;49.894;8.822;2023-05-10T12:42:42;3.63;;;0.60;;
20365;SDS011;10341;49.894;8.822;2023-05-10T12:48:03;0.70;;;0.70;;
20365;SDS011;10341;49.894;8.822;2023-05-10T12:53:23;0.75;;;0.65;;
20365;SDS011;10341;49.894;8.822;2023-05-10T12:58:42;2.72;;;0.70;;
20365;SDS011;10341;49.894;8.822;2023-05-10T13:04:06;0.77;;;0.50;;
20365;SDS011;10341;49.894;8.822;2023-05-10T13:09:26;1.33;;;0.70;;
20365;SDS011;10341;49.894;8.822;2023-05-10T13:14:47;2.30;;;0.65;;
20365;SDS011;10341;49.894;8.822;2023-05-10T13:20:07;0.40;;;0.40;;
20365;SDS011;10341;49.894;8.822;2023-05-10T13:25:26;1.08;;;0.68;;
20365;SDS011;10341;49.894;8.822;2023-05-10T13:30:46;0.55;;;0.55;;
20365;SDS011;10341;49.894;8.822;2023-05-10T13:36:05;1.30;;;0.65;;
20365;SDS011;10341;49.894;8.822;2023-05-10T13:41:25;0.98;;;0.80;;
20365;SDS011;10341;49.894;8.822;2023-05-10T13:46:44;2.65;;;0.98;;
20365;SDS011;10341;49.894;8.822;2023-05-10T13:52:03;2.92;;;0.95;;
20365;SDS011;10341;49.894;8.822;2023-05-10T13:57:25;3.40;;;1.15;;
20365;SDS011;10341;49.894;8.822;2023-05-10T14:02:45;2.70;;;1.02;;
20365;SDS011;10341;49.894;8.822;2023-05-10T14:08:04;4.33;;;1.20;;
20365;SDS011;10341;49.894;8.822;2023-05-10T14:13:23;1.77;;;0.83;;
20365;SDS011;10341;49.894;8.822;2023-05-10T14:18:43;2.03;;;1.20;;
20365;SDS011;10341;49.894;8.822;2023-05-10T14:24:03;1.27;;;0.80;;
20365;SDS011;10341;49.894;8.822;2023-05-10T14:34:42;3.25;;;1.20;;
20365;SDS011;10341;49.894;8.822;2023-05-10T14:40:01;1.80;;;0.80;;
20365;SDS011;10341;49.894;8.822;2023-05-10T14:50:41;1.52;;;0.80;;
20365;SDS011;10341;49.894;8.822;2023-05-10T14:56:00;6.60;;;1.63;;
20365;SDS011;10341;49.894;8.822;2023-05-10T15:01:20;1.75;;;1.10;;
20365;SDS011;10341;49.894;8.822;2023-05-10T15:06:40;1.48;;;0.63;;
20365;SDS011;10341;49.894;8.822;2023-05-10T15:11:59;3.28;;;0.80;;
20365;SDS011;10341;49.894;8.822;2023-05-10T15:17:19;0.82;;;0.57;;
20365;SDS011;10341;49.894;8.822;2023-05-10T15:22:38;1.52;;;0.70;;
20365;SDS011;10341;49.894;8.822;2023-05-10T15:27:57;1.37;;;0.53;;
20365;SDS011;10341;49.894;8.822;2023-05-10T15:33:16;2.15;;;0.63;;
20365;SDS011;10341;49.894;8.822;2023-05-10T15:38:35;4.53;;;0.70;;
20365;SDS011;10341;49.894;8.822;2023-05-10T15:43:55;1.35;;;0.70;;
20365;SDS011;10341;49.894;8.822;2023-05-10T15:49:18;1.20;;;0.82;;
20365;SDS011;10341;49.894;8.822;2023-05-10T15:54:37;3.15;;;0.80;;
20365;SDS011;10341;49.894;8.822;2023-05-10T15:59:56;1.80;;;0.90;;
20365;SDS011;10341;49.894;8.822;2023-05-10T16:05:15;1.95;;;0.60;;
20365;SDS011;10341;49.894;8.822;2023-05-10T16:10:34;0.98;;;0.77;;
20365;SDS011;10341;49.894;8.822;2023-05-10T16:15:54;1.17;;;0.70;;
20365;SDS011;10341;49.894;8.822;2023-05-10T16:21:15;2.05;;;0.60;;
20365;SDS011;10341;49.894;8.822;2023-05-10T16:26:34;2.03;;;0.47;;
20365;SDS011;10341;49.894;8.822;2023-05-10T16:31:58;5.25;;;0.85;;
20365;SDS011;10341;49.894;8.822;2023-05-10T16:37:18;0.70;;;0.60;;
20365;SDS011;10341;49.894;8.822;2023-05-10T16:42:37;4.10;;;0.60;;
20365;SDS011;10341;49.894;8.822;2023-05-10T16:47:56;1.50;;;0.70;;
20365;SDS011;10341;49.894;8.822;2023-05-10T16:53:15;1.05;;;0.82;;
20365;SDS011;10341;49.894;8.822;2023-05-10T16:58:34;4.20;;;0.73;;
20365;SDS011;10341;49.894;8.822;2023-05-10T17:03:53;3.72;;;0.77;;
20365;SDS011;10341;49.894;8.822;2023-05-10T17:09:13;2.30;;;0.70;;
20365;SDS011;10341;49.894;8.822;2023-05-10T17:14:32;3.25;;;0.82;;
20365;SDS011;10341;49.894;8.822;2023-05-10T17:19:51;2.78;;;0.60;;
20365;SDS011;10341;49.894;8.822;2023-05-10T17:25:10;1.33;;;0.90;;
20365;SDS011;10341;49.894;8.822;2023-05-10T17:30:30;2.72;;;0.93;;
20365;SDS011;10341;49.894;8.822;2023-05-10T17:35:50;2.03;;;0.65;;
20365;SDS011;10341;49.894;8.822;2023-05-10T17:41:09;0.93;;;0.53;;
20365;SDS011;10341;49.894;8.822;2023-05-10T17:46:28;0.52;;;0.50;;
20365;SDS011;10341;49.894;8.822;2023-05-10T17:51:48;1.53;;;0.60;;
20365;SDS011;10341;49.894;8.822;2023-05-10T17:57:07;1.67;;;0.75;;
20365;SDS011;10341;49.894;8.822;2023-05-10T18:02:26;1.17;;;1.00;;
20365;SDS011;10341;49.894;8.822;2023-05-10T18:07:46;1.27;;;0.70;;
20365;SDS011;10341;49.894;8.822;2023-05-10T18:13:05;1.95;;;0.70;;
20365;SDS011;10341;49.894;8.822;2023-05-10T18:18:25;1.67;;;1.10;;
20365;SDS011;10341;49.894;8.822;2023-05-10T18:23:45;1.15;;;0.70;;
20365;SDS011;10341;49.894;8.822;2023-05-10T18:29:04;1.25;;;0.80;;
20365;SDS011;10341;49.894;8.822;2023-05-10T18:34:24;2.47;;;1.00;;
20365;SDS011;10341;49.894;8.822;2023-05-10T18:39:43;1.80;;;1.42;;
20365;SDS011;10341;49.894;8.822;2023-05-10T18:45:02;1.73;;;1.00;;
20365;SDS011;10341;49.894;8.822;2023-05-10T18:50:22;0.77;;;0.77;;
20365;SDS011;10341;49.894;8.822;2023-05-10T18:55:41;1.38;;;0.90;;
20365;SDS011;10341;49.894;8.822;2023-05-10T19:01:00;1.55;;;0.80;;
20365;SDS011;10341;49.894;8.822;2023-05-10T19:06:19;2.17;;;1.07;;
20365;SDS011;10341;49.894;8.822;2023-05-10T19:11:39;2.42;;;2.03;;
20365;SDS011;10341;49.894;8.822;2023-05-10T19:16:58;2.38;;;1.48;;
20365;SDS011;10341;49.894;8.822;2023-05-10T19:22:18;9.10;;;2.80;;
20365;SDS011;10341;49.894;8.822;2023-05-10T19:27:38;5.28;;;1.50;;
20365;SDS011;10341;49.894;8.822;2023-05-10T19:32:57;3.45;;;1.02;;
20365;SDS011;10341;49.894;8.822;2023-05-10T19:38:18;3.35;;;1.08;;
20365;SDS011;10341;49.894;8.822;2023-05-10T19:43:38;2.40;;;1.08;;
20365;SDS011;10341;49.894;8.822;2023-05-10T19:48:59;2.97;;;1.50;;
20365;SDS011;10341;49.894;8.822;2023-05-10T19:54:18;2.35;;;1.20;;
20365;SDS011;10341;49.894;8.822;2023-05-10T19:59:37;1.10;;;1.00;;
20365;SDS011;10341;49.894;8.822;2023-05-10T20:04:56;2.80;;;1.20;;
20365;SDS011;10341;49.894;8.822;2023-05-10T20:10:15;1.55;;;1.45;;
20365;SDS011;10341;49.894;8.822;2023-05-10T20:15:35;3.90;;;1.63;;
20365;SDS011;10341;49.894;8.822;2023-05-10T20:20:56;3.15;;;1.75;;
20365;SDS011;10341;49.894;8.822;2023-05-10T20:26:16;2.55;;;1.60;;
20365;SDS011;10341;49.894;8.822;2023-05-10T20:31:35;3.67;;;1.80;;
20365;SDS011;10341;49.894;8.822;2023-05-10T20:36:54;3.55;;;1.40;;
20365;SDS011;10341;49.894;8.822;2023-05-10T20:42:13;2.50;;;1.30;;
20365;SDS011;10341;49.894;8.822;2023-05-10T20:47:32;1.90;;;1.67;;
20365;SDS011;10341;49.894;8.822;2023-05-10T20:58:11;3.88;;;2.42;;
20365;SDS011;10341;49.894;8.822;2023-05-10T21:03:30;3.75;;;1.60;;
20365;SDS011;10341;49.894;8.822;2023-05-10T21:08:51;4.28;;;1.50;;
20365;SDS011;10341;49.894;8.822;2023-05-10T21:14:10;3.88;;;2.20;;
20365;SDS011;10341;49.894;8.822;2023-05-10T21:19:29;6.03;;;2.13;;
20365;SDS011;10341;49.894;8.822;2023-05-10T21:24:48;1.70;;;1.60;;
20365;SDS011;10341;49.894;8.822;2023-05-10T21:30:07;2.95;;;1.38;;
20365;SDS011;10341;49.894;8.822;2023-05-10T21:40:47;1.50;;;1.33;;
20365;SDS011;10341;49.894;8.822;2023-05-10T21:46:06;1.40;;;1.23;;
20365;SDS011;10341;49.894;8.822;2023-05-10T21:51:26;1.83;;;1.20;;
20365;SDS011;10341;49.894;8.822;2023-05-10T21:56:46;1.63;;;1.00;;
20365;SDS011;10341;49.894;8.822;2023-05-10T22:02:06;2.28;;;1.10;;
20365;SDS011;10341;49.894;8.822;2023-05-10T22:07:25;2.15;;;1.10;;
20365;SDS011;10341;49.894;8.822;2023-05-10T22:12:45;2.20;;;1.67;;
20365;SDS011;10341;49.894;8.822;2023-05-10T22:18:04;2.08;;;1.48;;
20365;SDS011;10341;49.894;8.822;2023-05-10T22:23:23;3.38;;;1.50;;
20365;SDS011;10341;49.894;8.822;2023-05-10T22:28:42;4.23;;;1.80;;
20365;SDS011;10341;49.894;8.822;2023-05-10T22:34:02;2.47;;;1.80;;
20365;SDS011;10341;49.894;8.822;2023-05-10T22:39:21;2.60;;;1.90;;
20365;SDS011;10341;49.894;8.822;2023-05-10T22:44:41;2.67;;;1.80;;
20365;SDS011;10341;49.894;8.822;2023-05-10T22:50:01;2.00;;;1.80;;
20365;SDS011;10341;49.894;8.822;2023-05-10T22:55:23;4.40;;;1.63;;
20365;SDS011;10341;49.894;8.822;2023-05-10T23:00:42;2.85;;;1.90;;
20365;SDS011;10341;49.894;8.822;2023-05-10T23:06:01;4.33;;;2.00;;
20365;SDS011;10341;49.894;8.822;2023-05-10T23:11:20;2.42;;;1.80;;
20365;SDS011;10341;49.894;8.822;2023-05-10T23:16:40;4.07;;;2.30;;
20365;SDS011;10341;49.894;8.822;2023-05-10T23:22:00;5.00;;;2.60;;
20365;SDS011;10341;49.894;8.822;2023-05-10T23:27:19;2.00;;;1.75;;
20365;SDS011;10341;49.894;8.822;2023-05-10T23:32:38;2.13;;;1.85;;
20365;SDS011;10341;49.894;8.822;2023-05-10T23:37:57;4.00;;;2.00;;
20365;SDS011;10341;49.894;8.822;2023-05-10T23:43:16;2.07;;;1.87;;
20365;SDS011;10341;49.894;8.822;2023-05-10T23:48:37;2.75;;;1.70;;
20365;SDS011;10341;49.894;8.822;2023-05-10T23:53:56;2.70;;;1.90;;
20365;SDS011;10341;49.894;8.822;2023-05-10T23:59:15;2.47;;;1.65;;
